sensor_id;sensor_type;location;lat;lon;timestamp;P1;durP1;ratioP1;P2;durP2;ratioP2
17199;SDS011;8716;52.268;20.968;2022-12-07T00:01:37;4.85;;;4.55;;
17199;SDS011;8716;52.268;20.968;2022-12-07T00:04:08;4.28;;;4.03;;
17199;SDS011;8716;52.268;20.968;2022-12-07T00:06:39;4.68;;;4.38;;
17199;SDS011;8716;52.268;20.968;2022-12-07T00:09:10;6.70;;;5.75;;
17199;SDS011;8716;52.268;20.968;2022-12-07T00:11:40;6.00;;;3.72;;
17199;SDS011;8716;52.268;20.968;2022-12-07T00:14:10;4.63;;;3.75;;
17199;SDS011;8716;52.268;20.968;2022-12-07T00:16:39;3.80;;;3.60;;
17199;SDS011;8716;52.268;20.968;2022-12-07T00:19:10;3.45;;;2.92;;
17199;SDS011;8716;52.268;20.968;2022-12-07T00:21:39;5.53;;;5.22;;
17199;SDS011;8716;52.268;20.968;2022-12-07T00:24:07;8.02;;;4.47;;
17199;SDS011;8716;52.268;20.968;2022-12-07T00:26:36;11.82;;;4.38;;
17199;SDS011;8716;52.268;20.968;2022-12-07T00:29:07;5.10;;;4.00;;
17199;SDS011;8716;52.268;20.968;2022-12-07T00:31:39;4.72;;;4.40;;
17199;SDS011;8716;52.268;20.968;2022-12-07T00:34:07;6.53;;;4.82;;
17199;SDS011;8716;52.268;20.968;2022-12-07T00:36:43;12.13;;;6.47;;
17199;SDS011;8716;52.268;20.968;2022-12-07T00:39:12;4.85;;;3.70;;
17199;SDS011;8716;52.268;20.968;2022-12-07T00:41:40;6.30;;;5.35;;
17199;SDS011;8716;52.268;20.968;2022-12-07T00:44:10;5.47;;;5.18;;
17199;SDS011;8716;52.268;20.968;2022-12-07T00:46:39;8.25;;;7.18;;
17199;SDS011;8716;52.268;20.968;2022-12-07T00:49:07;8.02;;;5.93;;
17199;SDS011;8716;52.268;20.968;2022-12-07T00:51:36;3.58;;;3.38;;
17199;SDS011;8716;52.268;20.968;2022-12-07T00:54:04;5.72;;;5.43;;
17199;SDS011;8716;52.268;20.968;2022-12-07T00:56:33;7.60;;;7.20;;
17199;SDS011;8716;52.268;20.968;2022-12-07T00:59:02;12.38;;;11.75;;
17199;SDS011;8716;52.268;20.968;2022-12-07T01:01:32;6.05;;;5.68;;
17199;SDS011;8716;52.268;20.968;2022-12-07T01:04:04;18.15;;;8.05;;
17199;SDS011;8716;52.268;20.968;2022-12-07T01:06:36;7.47;;;6.53;;
17199;SDS011;8716;52.268;20.968;2022-12-07T01:09:05;12.07;;;11.13;;
17199;SDS011;8716;52.268;20.968;2022-12-07T01:11:33;14.68;;;13.93;;
17199;SDS011;8716;52.268;20.968;2022-12-07T01:14:02;11.93;;;11.10;;
17199;SDS011;8716;52.268;20.968;2022-12-07T01:16:31;14.73;;;11.90;;
17199;SDS011;8716;52.268;20.968;2022-12-07T01:19:00;6.60;;;6.20;;
17199;SDS011;8716;52.268;20.968;2022-12-07T01:21:31;11.95;;;8.95;;
17199;SDS011;8716;52.268;20.968;2022-12-07T01:24:06;12.07;;;11.48;;
17199;SDS011;8716;52.268;20.968;2022-12-07T01:26:37;16.40;;;11.82;;
17199;SDS011;8716;52.268;20.968;2022-12-07T01:29:05;27.98;;;9.40;;
17199;SDS011;8716;52.268;20.968;2022-12-07T01:31:33;12.65;;;10.80;;
17199;SDS011;8716;52.268;20.968;2022-12-07T01:34:01;13.70;;;10.77;;
17199;SDS011;8716;52.268;20.968;2022-12-07T01:36:31;10.30;;;9.73;;
17199;SDS011;8716;52.268;20.968;2022-12-07T01:39:03;14.57;;;8.65;;
17199;SDS011;8716;52.268;20.968;2022-12-07T01:41:35;16.35;;;7.90;;
17199;SDS011;8716;52.268;20.968;2022-12-07T01:44:13;6.35;;;6.03;;
17199;SDS011;8716;52.268;20.968;2022-12-07T01:46:47;6.72;;;6.32;;
17199;SDS011;8716;52.268;20.968;2022-12-07T01:49:17;15.48;;;11.77;;
17199;SDS011;8716;52.268;20.968;2022-12-07T01:51:49;8.60;;;7.32;;
17199;SDS011;8716;52.268;20.968;2022-12-07T01:54:23;8.88;;;8.38;;
17199;SDS011;8716;52.268;20.968;2022-12-07T01:56:53;7.43;;;6.93;;
17199;SDS011;8716;52.268;20.968;2022-12-07T01:59:24;13.70;;;13.00;;
17199;SDS011;8716;52.268;20.968;2022-12-07T02:01:53;10.70;;;7.22;;
17199;SDS011;8716;52.268;20.968;2022-12-07T02:04:23;8.18;;;7.72;;
17199;SDS011;8716;52.268;20.968;2022-12-07T02:06:51;6.80;;;6.40;;
17199;SDS011;8716;52.268;20.968;2022-12-07T02:09:20;10.02;;;9.52;;
17199;SDS011;8716;52.268;20.968;2022-12-07T02:11:50;8.90;;;8.40;;
17199;SDS011;8716;52.268;20.968;2022-12-07T02:14:19;10.73;;;10.15;;
17199;SDS011;8716;52.268;20.968;2022-12-07T02:16:50;7.65;;;6.88;;
17199;SDS011;8716;52.268;20.968;2022-12-07T02:22:35;11.68;;;6.53;;
17199;SDS011;8716;52.268;20.968;2022-12-07T02:25:21;5.43;;;4.60;;
17199;SDS011;8716;52.268;20.968;2022-12-07T02:28:02;5.07;;;4.72;;
17199;SDS011;8716;52.268;20.968;2022-12-07T02:30:37;5.82;;;5.15;;
17199;SDS011;8716;52.268;20.968;2022-12-07T02:33:11;7.32;;;6.93;;
17199;SDS011;8716;52.268;20.968;2022-12-07T02:35:42;6.82;;;6.43;;
17199;SDS011;8716;52.268;20.968;2022-12-07T02:38:16;7.47;;;6.50;;
17199;SDS011;8716;52.268;20.968;2022-12-07T02:40:52;6.47;;;5.53;;
17199;SDS011;8716;52.268;20.968;2022-12-07T02:43:23;5.15;;;4.85;;
17199;SDS011;8716;52.268;20.968;2022-12-07T02:45:55;5.25;;;4.95;;
17199;SDS011;8716;52.268;20.968;2022-12-07T02:48:30;5.90;;;5.60;;
17199;SDS011;8716;52.268;20.968;2022-12-07T02:51:00;3.95;;;3.70;;
17199;SDS011;8716;52.268;20.968;2022-12-07T02:53:29;3.88;;;3.67;;
17199;SDS011;8716;52.268;20.968;2022-12-07T02:55:59;10.70;;;10.13;;
17199;SDS011;8716;52.268;20.968;2022-12-07T02:58:33;4.38;;;4.07;;
17199;SDS011;8716;52.268;20.968;2022-12-07T03:01:15;5.07;;;4.78;;
17199;SDS011;8716;52.268;20.968;2022-12-07T03:06:46;6.07;;;4.32;;
17199;SDS011;8716;52.268;20.968;2022-12-07T03:09:21;5.65;;;5.35;;
17199;SDS011;8716;52.268;20.968;2022-12-07T03:12:01;5.15;;;3.85;;
17199;SDS011;8716;52.268;20.968;2022-12-07T03:14:37;4.30;;;4.00;;
17199;SDS011;8716;52.268;20.968;2022-12-07T03:17:15;3.20;;;3.00;;
17199;SDS011;8716;52.268;20.968;2022-12-07T03:19:47;9.02;;;3.95;;
17199;SDS011;8716;52.268;20.968;2022-12-07T03:22:17;3.30;;;3.10;;
17199;SDS011;8716;52.268;20.968;2022-12-07T03:24:50;4.70;;;4.40;;
17199;SDS011;8716;52.268;20.968;2022-12-07T03:27:23;7.43;;;4.47;;
17199;SDS011;8716;52.268;20.968;2022-12-07T03:29:57;4.80;;;4.50;;
17199;SDS011;8716;52.268;20.968;2022-12-07T03:32:32;5.75;;;5.45;;
17199;SDS011;8716;52.268;20.968;2022-12-07T03:35:04;4.80;;;4.30;;
17199;SDS011;8716;52.268;20.968;2022-12-07T03:37:37;4.45;;;2.78;;
17199;SDS011;8716;52.268;20.968;2022-12-07T03:40:11;9.25;;;6.15;;
17199;SDS011;8716;52.268;20.968;2022-12-07T03:42:42;6.45;;;3.45;;
17199;SDS011;8716;52.268;20.968;2022-12-07T03:45:11;6.53;;;5.65;;
17199;SDS011;8716;52.268;20.968;2022-12-07T03:47:45;5.38;;;4.47;;
17199;SDS011;8716;52.268;20.968;2022-12-07T03:50:21;5.15;;;4.85;;
17199;SDS011;8716;52.268;20.968;2022-12-07T03:52:53;4.90;;;4.60;;
17199;SDS011;8716;52.268;20.968;2022-12-07T03:55:25;5.07;;;4.78;;
17199;SDS011;8716;52.268;20.968;2022-12-07T03:57:56;3.88;;;3.67;;
17199;SDS011;8716;52.268;20.968;2022-12-07T04:00:29;8.23;;;7.68;;
17199;SDS011;8716;52.268;20.968;2022-12-07T04:02:59;3.33;;;3.13;;
17199;SDS011;8716;52.268;20.968;2022-12-07T04:05:27;9.20;;;8.70;;
17199;SDS011;8716;52.268;20.968;2022-12-07T04:07:56;9.90;;;9.40;;
17199;SDS011;8716;52.268;20.968;2022-12-07T04:10:24;9.43;;;6.85;;
17199;SDS011;8716;52.268;20.968;2022-12-07T04:12:52;6.13;;;5.80;;
17199;SDS011;8716;52.268;20.968;2022-12-07T04:15:20;6.28;;;5.93;;
17199;SDS011;8716;52.268;20.968;2022-12-07T04:17:49;3.13;;;2.95;;
17199;SDS011;8716;52.268;20.968;2022-12-07T04:20:18;5.50;;;2.90;;
17199;SDS011;8716;52.268;20.968;2022-12-07T04:22:49;5.20;;;4.60;;
17199;SDS011;8716;52.268;20.968;2022-12-07T04:25:17;3.50;;;3.03;;
17199;SDS011;8716;52.268;20.968;2022-12-07T04:27:45;4.55;;;4.25;;
17199;SDS011;8716;52.268;20.968;2022-12-07T04:30:13;1.92;;;1.88;;
17199;SDS011;8716;52.268;20.968;2022-12-07T04:32:42;5.15;;;4.50;;
17199;SDS011;8716;52.268;20.968;2022-12-07T04:35:10;3.63;;;3.42;;
17199;SDS011;8716;52.268;20.968;2022-12-07T04:37:39;3.65;;;3.33;;
17199;SDS011;8716;52.268;20.968;2022-12-07T04:40:08;2.58;;;2.40;;
17199;SDS011;8716;52.268;20.968;2022-12-07T04:42:37;3.55;;;3.35;;
17199;SDS011;8716;52.268;20.968;2022-12-07T04:45:06;6.38;;;3.83;;
17199;SDS011;8716;52.268;20.968;2022-12-07T04:47:35;2.75;;;2.55;;
17199;SDS011;8716;52.268;20.968;2022-12-07T04:50:04;2.85;;;2.53;;
17199;SDS011;8716;52.268;20.968;2022-12-07T04:52:33;3.05;;;1.92;;
17199;SDS011;8716;52.268;20.968;2022-12-07T04:55:03;3.15;;;2.95;;
17199;SDS011;8716;52.268;20.968;2022-12-07T04:57:31;6.05;;;5.72;;
17199;SDS011;8716;52.268;20.968;2022-12-07T04:59:59;2.55;;;2.05;;
17199;SDS011;8716;52.268;20.968;2022-12-07T05:02:28;3.92;;;2.30;;
17199;SDS011;8716;52.268;20.968;2022-12-07T05:04:56;4.15;;;2.72;;
17199;SDS011;8716;52.268;20.968;2022-12-07T05:07:24;3.90;;;2.50;;
17199;SDS011;8716;52.268;20.968;2022-12-07T05:09:52;4.88;;;3.33;;
17199;SDS011;8716;52.268;20.968;2022-12-07T05:12:22;2.28;;;2.08;;
17199;SDS011;8716;52.268;20.968;2022-12-07T05:14:50;7.15;;;2.47;;
17199;SDS011;8716;52.268;20.968;2022-12-07T05:17:18;3.90;;;3.20;;
17199;SDS011;8716;52.268;20.968;2022-12-07T05:19:46;3.58;;;3.38;;
17199;SDS011;8716;52.268;20.968;2022-12-07T05:22:15;3.33;;;3.13;;
17199;SDS011;8716;52.268;20.968;2022-12-07T05:24:43;3.65;;;3.08;;
17199;SDS011;8716;52.268;20.968;2022-12-07T05:27:11;2.90;;;2.70;;
17199;SDS011;8716;52.268;20.968;2022-12-07T05:29:40;4.28;;;3.40;;
17199;SDS011;8716;52.268;20.968;2022-12-07T05:32:08;4.13;;;2.88;;
17199;SDS011;8716;52.268;20.968;2022-12-07T05:34:37;6.05;;;2.88;;
17199;SDS011;8716;52.268;20.968;2022-12-07T05:37:05;2.42;;;2.22;;
17199;SDS011;8716;52.268;20.968;2022-12-07T05:39:33;1.85;;;1.73;;
17199;SDS011;8716;52.268;20.968;2022-12-07T05:42:01;2.25;;;2.05;;
17199;SDS011;8716;52.268;20.968;2022-12-07T05:44:44;3.78;;;3.47;;
17199;SDS011;8716;52.268;20.968;2022-12-07T05:47:13;1.95;;;1.85;;
17199;SDS011;8716;52.268;20.968;2022-12-07T05:49:45;2.40;;;2.20;;
17199;SDS011;8716;52.268;20.968;2022-12-07T05:52:13;2.60;;;2.40;;
17199;SDS011;8716;52.268;20.968;2022-12-07T05:54:41;2.63;;;2.35;;
17199;SDS011;8716;52.268;20.968;2022-12-07T05:57:09;2.95;;;2.75;;
17199;SDS011;8716;52.268;20.968;2022-12-07T05:59:37;4.25;;;2.30;;
17199;SDS011;8716;52.268;20.968;2022-12-07T06:02:07;3.55;;;2.35;;
17199;SDS011;8716;52.268;20.968;2022-12-07T06:04:39;3.67;;;3.15;;
17199;SDS011;8716;52.268;20.968;2022-12-07T06:07:09;2.15;;;1.92;;
17199;SDS011;8716;52.268;20.968;2022-12-07T06:09:38;3.95;;;3.72;;
17199;SDS011;8716;52.268;20.968;2022-12-07T06:12:08;2.72;;;2.53;;
17199;SDS011;8716;52.268;20.968;2022-12-07T06:14:58;4.88;;;2.58;;
17199;SDS011;8716;52.268;20.968;2022-12-07T06:17:27;3.25;;;3.08;;
17199;SDS011;8716;52.268;20.968;2022-12-07T06:19:55;2.80;;;2.60;;
17199;SDS011;8716;52.268;20.968;2022-12-07T06:22:23;2.97;;;2.25;;
17199;SDS011;8716;52.268;20.968;2022-12-07T06:24:52;3.15;;;2.30;;
17199;SDS011;8716;52.268;20.968;2022-12-07T06:27:20;3.85;;;2.40;;
17199;SDS011;8716;52.268;20.968;2022-12-07T06:29:48;2.63;;;2.42;;
17199;SDS011;8716;52.268;20.968;2022-12-07T06:32:16;4.57;;;2.05;;
17199;SDS011;8716;52.268;20.968;2022-12-07T06:34:46;3.03;;;2.40;;
17199;SDS011;8716;52.268;20.968;2022-12-07T06:37:14;2.97;;;2.20;;
17199;SDS011;8716;52.268;20.968;2022-12-07T06:39:42;2.38;;;2.25;;
17199;SDS011;8716;52.268;20.968;2022-12-07T06:42:11;3.17;;;2.97;;
17199;SDS011;8716;52.268;20.968;2022-12-07T06:44:39;4.55;;;3.10;;
17199;SDS011;8716;52.268;20.968;2022-12-07T06:47:07;2.60;;;2.40;;
17199;SDS011;8716;52.268;20.968;2022-12-07T06:49:57;2.20;;;2.00;;
17199;SDS011;8716;52.268;20.968;2022-12-07T06:52:28;4.32;;;3.80;;
17199;SDS011;8716;52.268;20.968;2022-12-07T06:54:57;4.63;;;3.80;;
17199;SDS011;8716;52.268;20.968;2022-12-07T06:57:28;7.70;;;2.63;;
17199;SDS011;8716;52.268;20.968;2022-12-07T06:59:56;4.38;;;4.10;;
17199;SDS011;8716;52.268;20.968;2022-12-07T07:02:26;3.05;;;2.25;;
17199;SDS011;8716;52.268;20.968;2022-12-07T07:04:56;3.47;;;2.25;;
17199;SDS011;8716;52.268;20.968;2022-12-07T07:07:24;3.88;;;3.65;;
17199;SDS011;8716;52.268;20.968;2022-12-07T07:09:54;3.00;;;2.80;;
17199;SDS011;8716;52.268;20.968;2022-12-07T07:12:23;3.50;;;3.30;;
17199;SDS011;8716;52.268;20.968;2022-12-07T07:14:51;4.82;;;4.53;;
17199;SDS011;8716;52.268;20.968;2022-12-07T07:17:19;2.33;;;2.13;;
17199;SDS011;8716;52.268;20.968;2022-12-07T07:19:47;2.22;;;2.13;;
17199;SDS011;8716;52.268;20.968;2022-12-07T07:22:17;2.40;;;2.25;;
17199;SDS011;8716;52.268;20.968;2022-12-07T07:24:45;2.60;;;1.90;;
17199;SDS011;8716;52.268;20.968;2022-12-07T07:27:13;3.97;;;3.15;;
17199;SDS011;8716;52.268;20.968;2022-12-07T07:29:41;2.55;;;2.42;;
17199;SDS011;8716;52.268;20.968;2022-12-07T07:32:09;2.92;;;2.72;;
17199;SDS011;8716;52.268;20.968;2022-12-07T07:34:40;3.22;;;3.03;;
17199;SDS011;8716;52.268;20.968;2022-12-07T07:37:09;2.95;;;2.75;;
17199;SDS011;8716;52.268;20.968;2022-12-07T07:39:48;4.93;;;3.55;;
17199;SDS011;8716;52.268;20.968;2022-12-07T07:42:16;4.10;;;3.40;;
17199;SDS011;8716;52.268;20.968;2022-12-07T07:44:45;4.18;;;3.80;;
17199;SDS011;8716;52.268;20.968;2022-12-07T07:47:13;4.90;;;2.80;;
17199;SDS011;8716;52.268;20.968;2022-12-07T07:49:41;3.67;;;3.47;;
17199;SDS011;8716;52.268;20.968;2022-12-07T07:52:13;3.15;;;2.38;;
17199;SDS011;8716;52.268;20.968;2022-12-07T07:54:41;2.72;;;2.60;;
17199;SDS011;8716;52.268;20.968;2022-12-07T07:57:11;1.88;;;1.77;;
17199;SDS011;8716;52.268;20.968;2022-12-07T07:59:39;2.40;;;2.20;;
17199;SDS011;8716;52.268;20.968;2022-12-07T08:02:07;2.58;;;2.38;;
17199;SDS011;8716;52.268;20.968;2022-12-07T08:04:41;2.60;;;2.40;;
17199;SDS011;8716;52.268;20.968;2022-12-07T08:07:09;3.15;;;2.60;;
17199;SDS011;8716;52.268;20.968;2022-12-07T08:09:38;3.45;;;2.80;;
17199;SDS011;8716;52.268;20.968;2022-12-07T08:12:07;3.42;;;3.22;;
17199;SDS011;8716;52.268;20.968;2022-12-07T08:14:36;3.55;;;3.35;;
17199;SDS011;8716;52.268;20.968;2022-12-07T08:17:05;4.68;;;2.92;;
17199;SDS011;8716;52.268;20.968;2022-12-07T08:19:33;5.53;;;5.18;;
17199;SDS011;8716;52.268;20.968;2022-12-07T08:22:01;3.22;;;3.03;;
17199;SDS011;8716;52.268;20.968;2022-12-07T08:24:29;2.83;;;2.63;;
17199;SDS011;8716;52.268;20.968;2022-12-07T08:27:00;3.30;;;3.10;;
17199;SDS011;8716;52.268;20.968;2022-12-07T08:29:28;4.88;;;4.57;;
17199;SDS011;8716;52.268;20.968;2022-12-07T08:31:58;4.07;;;3.47;;
17199;SDS011;8716;52.268;20.968;2022-12-07T08:34:36;3.47;;;3.28;;
17199;SDS011;8716;52.268;20.968;2022-12-07T08:37:05;2.95;;;2.75;;
17199;SDS011;8716;52.268;20.968;2022-12-07T08:39:33;3.58;;;3.38;;
17199;SDS011;8716;52.268;20.968;2022-12-07T08:42:01;4.82;;;3.45;;
17199;SDS011;8716;52.268;20.968;2022-12-07T08:44:31;2.40;;;2.20;;
17199;SDS011;8716;52.268;20.968;2022-12-07T08:47:02;4.20;;;3.95;;
17199;SDS011;8716;52.268;20.968;2022-12-07T08:49:36;3.63;;;3.42;;
17199;SDS011;8716;52.268;20.968;2022-12-07T08:52:09;3.63;;;3.40;;
17199;SDS011;8716;52.268;20.968;2022-12-07T08:54:38;6.45;;;5.60;;
17199;SDS011;8716;52.268;20.968;2022-12-07T08:57:07;3.03;;;2.83;;
17199;SDS011;8716;52.268;20.968;2022-12-07T08:59:36;2.95;;;2.75;;
17199;SDS011;8716;52.268;20.968;2022-12-07T09:02:06;3.92;;;3.55;;
17199;SDS011;8716;52.268;20.968;2022-12-07T09:04:34;6.00;;;5.30;;
17199;SDS011;8716;52.268;20.968;2022-12-07T09:07:02;7.97;;;5.38;;
17199;SDS011;8716;52.268;20.968;2022-12-07T09:09:31;14.32;;;6.30;;
17199;SDS011;8716;52.268;20.968;2022-12-07T09:12:00;5.45;;;5.15;;
17199;SDS011;8716;52.268;20.968;2022-12-07T09:14:28;9.57;;;5.20;;
17199;SDS011;8716;52.268;20.968;2022-12-07T09:17:05;7.95;;;4.15;;
17199;SDS011;8716;52.268;20.968;2022-12-07T09:19:34;7.15;;;6.78;;
17199;SDS011;8716;52.268;20.968;2022-12-07T09:22:02;4.32;;;4.00;;
17199;SDS011;8716;52.268;20.968;2022-12-07T09:24:32;5.20;;;4.35;;
17199;SDS011;8716;52.268;20.968;2022-12-07T09:27:00;5.85;;;4.30;;
17199;SDS011;8716;52.268;20.968;2022-12-07T09:29:28;6.50;;;5.65;;
17199;SDS011;8716;52.268;20.968;2022-12-07T09:31:56;5.43;;;4.97;;
17199;SDS011;8716;52.268;20.968;2022-12-07T09:34:26;5.22;;;4.95;;
17199;SDS011;8716;52.268;20.968;2022-12-07T09:36:54;9.10;;;8.52;;
17199;SDS011;8716;52.268;20.968;2022-12-07T09:39:22;6.00;;;5.07;;
17199;SDS011;8716;52.268;20.968;2022-12-07T09:41:51;5.55;;;5.25;;
17199;SDS011;8716;52.268;20.968;2022-12-07T09:44:20;5.63;;;5.32;;
17199;SDS011;8716;52.268;20.968;2022-12-07T09:46:53;8.23;;;4.40;;
17199;SDS011;8716;52.268;20.968;2022-12-07T09:49:23;3.67;;;3.47;;
17199;SDS011;8716;52.268;20.968;2022-12-07T09:52:01;9.52;;;5.32;;
17199;SDS011;8716;52.268;20.968;2022-12-07T09:54:31;5.70;;;4.95;;
17199;SDS011;8716;52.268;20.968;2022-12-07T09:57:05;7.40;;;7.00;;
17199;SDS011;8716;52.268;20.968;2022-12-07T09:59:34;8.80;;;7.37;;
17199;SDS011;8716;52.268;20.968;2022-12-07T10:02:19;4.33;;;4.03;;
17199;SDS011;8716;52.268;20.968;2022-12-07T10:05:02;5.15;;;4.85;;
17199;SDS011;8716;52.268;20.968;2022-12-07T10:07:32;6.68;;;5.55;;
17199;SDS011;8716;52.268;20.968;2022-12-07T10:10:02;6.90;;;6.13;;
17199;SDS011;8716;52.268;20.968;2022-12-07T10:12:31;7.45;;;6.20;;
17199;SDS011;8716;52.268;20.968;2022-12-07T10:15:20;3.30;;;3.10;;
17199;SDS011;8716;52.268;20.968;2022-12-07T10:17:51;4.87;;;4.57;;
17199;SDS011;8716;52.268;20.968;2022-12-07T10:20:24;4.80;;;4.50;;
17199;SDS011;8716;52.268;20.968;2022-12-07T10:22:55;4.50;;;4.20;;
17199;SDS011;8716;52.268;20.968;2022-12-07T10:25:26;5.00;;;4.73;;
17199;SDS011;8716;52.268;20.968;2022-12-07T10:28:03;7.37;;;6.90;;
17199;SDS011;8716;52.268;20.968;2022-12-07T10:30:46;7.82;;;7.43;;
17199;SDS011;8716;52.268;20.968;2022-12-07T10:33:30;6.17;;;5.83;;
17199;SDS011;8716;52.268;20.968;2022-12-07T10:36:15;5.63;;;5.33;;
17199;SDS011;8716;52.268;20.968;2022-12-07T10:38:46;5.37;;;5.07;;
17199;SDS011;8716;52.268;20.968;2022-12-07T10:41:16;5.07;;;4.77;;
17199;SDS011;8716;52.268;20.968;2022-12-07T10:43:52;4.60;;;4.27;;
17199;SDS011;8716;52.268;20.968;2022-12-07T10:49:44;5.13;;;4.83;;
17199;SDS011;8716;52.268;20.968;2022-12-07T10:52:46;3.87;;;3.43;;
17199;SDS011;8716;52.268;20.968;2022-12-07T10:55:26;6.10;;;4.43;;
17199;SDS011;8716;52.268;20.968;2022-12-07T10:58:14;11.53;;;7.50;;
17199;SDS011;8716;52.268;20.968;2022-12-07T11:00:54;7.17;;;6.40;;
17199;SDS011;8716;52.268;20.968;2022-12-07T11:03:37;4.97;;;4.33;;
17199;SDS011;8716;52.268;20.968;2022-12-07T11:06:16;4.57;;;4.27;;
17199;SDS011;8716;52.268;20.968;2022-12-07T11:09:00;3.50;;;3.30;;
17199;SDS011;8716;52.268;20.968;2022-12-07T11:11:36;5.27;;;4.97;;
17199;SDS011;8716;52.268;20.968;2022-12-07T11:14:13;7.17;;;5.53;;
17199;SDS011;8716;52.268;20.968;2022-12-07T11:16:51;4.13;;;3.90;;
17199;SDS011;8716;52.268;20.968;2022-12-07T11:19:32;3.80;;;2.97;;
17199;SDS011;8716;52.268;20.968;2022-12-07T11:22:13;8.80;;;7.63;;
17199;SDS011;8716;52.268;20.968;2022-12-07T11:24:48;14.27;;;6.53;;
17199;SDS011;8716;52.268;20.968;2022-12-07T11:27:24;4.60;;;4.30;;
17199;SDS011;8716;52.268;20.968;2022-12-07T11:30:06;5.30;;;4.43;;
17199;SDS011;8716;52.268;20.968;2022-12-07T11:32:51;10.07;;;5.07;;
17199;SDS011;8716;52.268;20.968;2022-12-07T11:35:30;11.37;;;6.80;;
17199;SDS011;8716;52.268;20.968;2022-12-07T11:38:10;10.30;;;6.27;;
17199;SDS011;8716;52.268;20.968;2022-12-07T11:40:44;5.47;;;5.17;;
17199;SDS011;8716;52.268;20.968;2022-12-07T11:43:19;7.90;;;7.50;;
17199;SDS011;8716;52.268;20.968;2022-12-07T11:45:54;3.30;;;3.10;;
17199;SDS011;8716;52.268;20.968;2022-12-07T11:48:29;12.10;;;6.87;;
17199;SDS011;8716;52.268;20.968;2022-12-07T11:51:02;8.30;;;6.53;;
17199;SDS011;8716;52.268;20.968;2022-12-07T11:53:32;9.90;;;5.80;;
17199;SDS011;8716;52.268;20.968;2022-12-07T11:56:07;4.87;;;4.57;;
17199;SDS011;8716;52.268;20.968;2022-12-07T11:58:41;3.70;;;3.50;;
17199;SDS011;8716;52.268;20.968;2022-12-07T12:01:15;8.27;;;6.93;;
17199;SDS011;8716;52.268;20.968;2022-12-07T12:03:58;5.27;;;4.97;;
17199;SDS011;8716;52.268;20.968;2022-12-07T12:06:33;4.17;;;3.93;;
17199;SDS011;8716;52.268;20.968;2022-12-07T12:09:02;5.03;;;4.73;;
17199;SDS011;8716;52.268;20.968;2022-12-07T12:12:04;5.37;;;5.07;;
17199;SDS011;8716;52.268;20.968;2022-12-07T12:15:18;10.20;;;4.60;;
17199;SDS011;8716;52.268;20.968;2022-12-07T12:17:58;7.60;;;4.80;;
17199;SDS011;8716;52.268;20.968;2022-12-07T12:20:39;9.30;;;7.73;;
17199;SDS011;8716;52.268;20.968;2022-12-07T12:23:11;9.10;;;4.80;;
17199;SDS011;8716;52.268;20.968;2022-12-07T12:25:44;8.40;;;4.30;;
17199;SDS011;8716;52.268;20.968;2022-12-07T12:28:23;5.33;;;3.33;;
17199;SDS011;8716;52.268;20.968;2022-12-07T12:31:05;4.73;;;3.97;;
17199;SDS011;8716;52.268;20.968;2022-12-07T12:33:36;4.67;;;4.37;;
17199;SDS011;8716;52.268;20.968;2022-12-07T12:36:19;10.63;;;5.53;;
17199;SDS011;8716;52.268;20.968;2022-12-07T12:44:41;4.13;;;3.90;;
17199;SDS011;8716;52.268;20.968;2022-12-07T12:47:40;5.20;;;3.93;;
17199;SDS011;8716;52.268;20.968;2022-12-07T12:50:15;4.53;;;3.30;;
17199;SDS011;8716;52.268;20.968;2022-12-07T12:52:46;6.07;;;5.23;;
17199;SDS011;8716;52.268;20.968;2022-12-07T12:58:28;8.20;;;4.77;;
17199;SDS011;8716;52.268;20.968;2022-12-07T13:04:17;6.43;;;6.07;;
17199;SDS011;8716;52.268;20.968;2022-12-07T13:07:10;7.83;;;6.17;;
17199;SDS011;8716;52.268;20.968;2022-12-07T13:09:42;3.80;;;3.60;;
17199;SDS011;8716;52.268;20.968;2022-12-07T13:12:13;3.77;;;3.47;;
17199;SDS011;8716;52.268;20.968;2022-12-07T13:14:54;10.70;;;8.47;;
17199;SDS011;8716;52.268;20.968;2022-12-07T13:20:43;11.25;;;4.57;;
17199;SDS011;8716;52.268;20.968;2022-12-07T13:23:23;4.85;;;4.20;;
17199;SDS011;8716;52.268;20.968;2022-12-07T13:26:09;4.65;;;3.72;;
17199;SDS011;8716;52.268;20.968;2022-12-07T13:28:44;2.85;;;2.65;;
17199;SDS011;8716;52.268;20.968;2022-12-07T13:31:20;2.77;;;2.57;;
17199;SDS011;8716;52.268;20.968;2022-12-07T13:34:02;9.63;;;4.80;;
17199;SDS011;8716;52.268;20.968;2022-12-07T13:36:34;5.53;;;5.30;;
17199;SDS011;8716;52.268;20.968;2022-12-07T13:39:17;5.00;;;3.50;;
17199;SDS011;8716;52.268;20.968;2022-12-07T13:41:49;3.35;;;2.55;;
17199;SDS011;8716;52.268;20.968;2022-12-07T13:44:19;3.20;;;3.00;;
17199;SDS011;8716;52.268;20.968;2022-12-07T13:46:57;3.53;;;3.33;;
17199;SDS011;8716;52.268;20.968;2022-12-07T13:49:32;3.88;;;3.67;;
17199;SDS011;8716;52.268;20.968;2022-12-07T13:52:14;3.70;;;3.50;;
17199;SDS011;8716;52.268;20.968;2022-12-07T13:54:44;3.33;;;2.75;;
17199;SDS011;8716;52.268;20.968;2022-12-07T13:57:15;10.48;;;4.85;;
17199;SDS011;8716;52.268;20.968;2022-12-07T13:59:43;3.83;;;3.63;;
17199;SDS011;8716;52.268;20.968;2022-12-07T14:02:17;25.63;;;4.13;;
17199;SDS011;8716;52.268;20.968;2022-12-07T14:04:48;5.65;;;5.35;;
17199;SDS011;8716;52.268;20.968;2022-12-07T14:07:20;5.30;;;5.00;;
17199;SDS011;8716;52.268;20.968;2022-12-07T14:09:53;2.83;;;2.63;;
17199;SDS011;8716;52.268;20.968;2022-12-07T14:12:23;5.32;;;4.00;;
17199;SDS011;8716;52.268;20.968;2022-12-07T14:14:53;7.00;;;5.03;;
17199;SDS011;8716;52.268;20.968;2022-12-07T14:17:23;6.68;;;6.28;;
17199;SDS011;8716;52.268;20.968;2022-12-07T14:19:53;6.83;;;6.43;;
17199;SDS011;8716;52.268;20.968;2022-12-07T14:22:31;4.97;;;3.77;;
17199;SDS011;8716;52.268;20.968;2022-12-07T14:25:13;5.40;;;4.90;;
17199;SDS011;8716;52.268;20.968;2022-12-07T14:27:48;6.30;;;5.95;;
17199;SDS011;8716;52.268;20.968;2022-12-07T14:30:22;4.88;;;3.65;;
17199;SDS011;8716;52.268;20.968;2022-12-07T14:32:53;4.97;;;4.40;;
17199;SDS011;8716;52.268;20.968;2022-12-07T14:35:24;8.10;;;6.53;;
17199;SDS011;8716;52.268;20.968;2022-12-07T14:37:54;5.88;;;4.07;;
17199;SDS011;8716;52.268;20.968;2022-12-07T14:40:25;8.00;;;7.60;;
17199;SDS011;8716;52.268;20.968;2022-12-07T14:42:56;5.97;;;5.13;;
17199;SDS011;8716;52.268;20.968;2022-12-07T14:45:28;5.22;;;4.93;;
17199;SDS011;8716;52.268;20.968;2022-12-07T14:47:56;4.88;;;4.43;;
17199;SDS011;8716;52.268;20.968;2022-12-07T14:50:45;6.95;;;5.22;;
17199;SDS011;8716;52.268;20.968;2022-12-07T14:53:39;9.57;;;9.07;;
17199;SDS011;8716;52.268;20.968;2022-12-07T14:56:08;7.95;;;7.55;;
17199;SDS011;8716;52.268;20.968;2022-12-07T14:58:37;9.55;;;5.38;;
17199;SDS011;8716;52.268;20.968;2022-12-07T15:01:05;13.68;;;4.88;;
17199;SDS011;8716;52.268;20.968;2022-12-07T15:03:33;6.03;;;5.72;;
17199;SDS011;8716;52.268;20.968;2022-12-07T15:06:03;4.15;;;3.92;;
17199;SDS011;8716;52.268;20.968;2022-12-07T15:08:33;10.18;;;6.22;;
17199;SDS011;8716;52.268;20.968;2022-12-07T15:11:02;4.93;;;4.63;;
17199;SDS011;8716;52.268;20.968;2022-12-07T15:13:31;8.93;;;7.00;;
17199;SDS011;8716;52.268;20.968;2022-12-07T15:16:19;6.80;;;5.50;;
17199;SDS011;8716;52.268;20.968;2022-12-07T15:18:48;5.70;;;4.22;;
17199;SDS011;8716;52.268;20.968;2022-12-07T15:21:36;4.95;;;4.65;;
17199;SDS011;8716;52.268;20.968;2022-12-07T15:24:04;8.00;;;7.00;;
17199;SDS011;8716;52.268;20.968;2022-12-07T15:26:34;6.68;;;6.28;;
17199;SDS011;8716;52.268;20.968;2022-12-07T15:29:02;7.38;;;6.97;;
17199;SDS011;8716;52.268;20.968;2022-12-07T15:31:31;3.22;;;3.03;;
17199;SDS011;8716;52.268;20.968;2022-12-07T15:34:19;5.30;;;5.00;;
17199;SDS011;8716;52.268;20.968;2022-12-07T15:36:48;6.32;;;5.05;;
17199;SDS011;8716;52.268;20.968;2022-12-07T15:39:16;5.68;;;5.38;;
17199;SDS011;8716;52.268;20.968;2022-12-07T15:41:45;5.85;;;5.55;;